createdAt,value
2023-02-07T00:02:55.444Z,0.6
2023-02-07T00:04:56.481Z,0.6
2023-02-07T00:06:57.580Z,0.6
2023-02-07T00:08:58.666Z,0.6
2023-02-07T00:13:00.813Z,0.7
2023-02-07T00:15:01.903Z,0.7
2023-02-07T00:17:06.240Z,0.7
2023-02-07T00:19:07.320Z,0.7
2023-02-07T00:21:08.422Z,0.7
2023-02-07T00:23:09.460Z,0.7
2023-02-07T00:25:10.573Z,0.7
2023-02-07T00:33:18.093Z,0.7
2023-02-07T00:35:19.149Z,0.6
2023-02-07T00:37:47.580Z,0.6
2023-02-07T00:39:48.678Z,0.5
2023-02-07T00:41:49.736Z,0.6
2023-02-07T00:43:54.087Z,0.5
2023-02-07T00:45:55.181Z,0.4
2023-02-07T00:47:56.209Z,0.4
2023-02-07T01:00:05.947Z,0.3
2023-02-07T01:02:06.999Z,0.3
2023-02-07T01:04:08.124Z,0.3
2023-02-07T01:06:09.148Z,0.3
2023-02-07T01:10:11.302Z,0.2
2023-02-07T01:12:15.626Z,0.2
2023-02-07T01:14:16.711Z,0.2
2023-02-07T01:16:17.792Z,0.2
2023-02-07T01:18:18.824Z,0.1
2023-02-07T01:30:28.507Z,0.2
2023-02-07T01:31:30.807Z,0.1
2023-02-07T01:33:31.757Z,0.1
2023-02-07T01:35:32.833Z,0.1
2023-02-07T01:37:33.892Z,0.1
2023-02-07T01:39:38.249Z,0.1
2023-02-07T01:41:39.306Z,0.1
2023-02-07T01:43:40.365Z,0.1
2023-02-07T01:45:41.564Z,0
2023-02-07T01:47:42.513Z,0
2023-02-07T01:49:43.563Z,0
2023-02-07T01:51:44.665Z,0
2023-02-07T01:53:48.987Z,-0.1
2023-02-07T01:55:50.036Z,-0.1
2023-02-07T01:57:51.115Z,-0.1
2023-02-07T01:59:52.176Z,-0.1
2023-02-07T02:01:53.259Z,-0.1
2023-02-07T02:03:54.314Z,-0.1
2023-02-07T02:05:55.349Z,-0.1
2023-02-07T02:07:59.669Z,-0.1
2023-02-07T02:12:01.828Z,-0.1
2023-02-07T02:14:02.863Z,-0.1
2023-02-07T02:16:03.944Z,0
2023-02-07T02:18:04.993Z,0.1
2023-02-07T02:20:06.057Z,0.1
2023-02-07T02:22:10.394Z,0.2
2023-02-07T02:24:11.434Z,0.2
2023-02-07T02:26:12.501Z,0.2
2023-02-07T02:27:14.657Z,0.2
2023-02-07T02:29:15.732Z,0.2
2023-02-07T02:31:16.818Z,0.2
2023-02-07T02:33:17.835Z,0.1
2023-02-07T02:35:22.158Z,0.1
2023-02-07T02:37:23.238Z,0.1
2023-02-07T02:41:25.352Z,0.1
2023-02-07T02:43:26.429Z,0.1
2023-02-07T02:45:29.030Z,0.1
2023-02-07T02:47:30.051Z,0.1
2023-02-07T02:49:34.370Z,0.1
2023-02-07T02:51:35.420Z,0.1
2023-02-07T02:53:36.516Z,0.1
2023-02-07T02:55:37.848Z,0.1
2023-02-07T02:57:38.643Z,0
2023-02-07T02:59:39.704Z,0
2023-02-07T03:07:47.231Z,-0.1
2023-02-07T03:09:48.313Z,-0.1
2023-02-07T03:11:49.389Z,-0.1
2023-02-07T03:13:50.461Z,-0.2
2023-02-07T03:15:51.496Z,-0.2
2023-02-07T03:17:55.829Z,-0.2
2023-02-07T03:19:56.875Z,-0.2
2023-02-07T03:21:57.958Z,-0.2
2023-02-07T03:23:00.161Z,-0.2
2023-02-07T03:25:01.174Z,-0.2
2023-02-07T03:27:02.233Z,-0.2
2023-02-07T03:29:03.421Z,-0.2
2023-02-07T03:31:07.668Z,-0.3
2023-02-07T03:33:08.670Z,-0.3
2023-02-07T03:35:09.776Z,-0.3
2023-02-07T03:37:10.809Z,-0.4
2023-02-07T03:39:11.870Z,-0.4
2023-02-07T03:41:12.944Z,-0.5
2023-02-07T03:43:13.975Z,-0.5
2023-02-07T03:45:18.331Z,-0.5
2023-02-07T03:47:19.381Z,-0.4
2023-02-07T03:49:20.421Z,-0.5
2023-02-07T03:51:21.503Z,-0.5
2023-02-07T03:53:22.555Z,-0.5
2023-02-07T03:55:23.585Z,-0.5
2023-02-07T03:57:24.634Z,-0.6
2023-02-07T03:59:28.946Z,-0.6
2023-02-07T04:01:30.010Z,-0.6
2023-02-07T04:03:31.050Z,-0.6
2023-02-07T04:05:32.108Z,-0.6
2023-02-07T04:07:33.143Z,-0.6
2023-02-07T04:09:34.197Z,-0.6
2023-02-07T04:11:35.225Z,-0.6
2023-02-07T04:13:39.569Z,-0.5
2023-02-07T04:15:40.705Z,-0.6
2023-02-07T04:17:41.632Z,-0.6
2023-02-07T04:20:02.050Z,-0.6
2023-02-07T04:22:03.099Z,-0.6
2023-02-07T04:26:08.481Z,-0.7
2023-02-07T04:36:13.714Z,-0.8
2023-02-07T04:38:14.775Z,-0.9
2023-02-07T04:40:19.069Z,-0.9
2023-02-07T04:42:20.112Z,-1
2023-02-07T04:44:21.163Z,-1
2023-02-07T04:46:22.200Z,-1
2023-02-07T04:48:23.258Z,-1
2023-02-07T04:50:24.287Z,-0.9
2023-02-07T04:52:25.300Z,-1
2023-02-07T04:54:29.636Z,-1
2023-02-07T04:56:30.700Z,-1.1
2023-02-07T04:58:31.706Z,-1.1
2023-02-07T05:00:32.733Z,-1.1
2023-02-07T05:02:33.816Z,-1.1
2023-02-07T05:04:34.898Z,-1.1
2023-02-07T05:06:35.882Z,-1.1
2023-02-07T05:08:40.166Z,-1.2
2023-02-07T05:10:41.255Z,-1.2
2023-02-07T05:12:42.246Z,-1.2
2023-02-07T05:13:44.387Z,-1.2
2023-02-07T05:15:45.431Z,-1.2
2023-02-07T05:19:47.453Z,-1.3
2023-02-07T05:21:51.795Z,-1.3
2023-02-07T05:23:52.840Z,-1.3
2023-02-07T05:25:53.865Z,-1.2
2023-02-07T05:27:54.916Z,-1.3
2023-02-07T05:33:57.988Z,-1.5
2023-02-07T05:36:02.291Z,-1.4
2023-02-07T05:38:03.343Z,-1.4
2023-02-07T05:40:04.378Z,-1.4
2023-02-07T05:42:05.404Z,-1.4
2023-02-07T05:44:06.407Z,-1.5
2023-02-07T05:46:07.437Z,-1.5
2023-02-07T05:48:08.492Z,-1.5
2023-02-07T05:52:13.771Z,-1.6
2023-02-07T05:54:14.797Z,-1.6
2023-02-07T05:56:15.818Z,-1.5
2023-02-07T06:02:18.898Z,-1.6
2023-02-07T06:09:27.354Z,-1.6
2023-02-07T06:11:28.362Z,-1.7
2023-02-07T06:13:29.401Z,-1.6
2023-02-07T06:15:30.455Z,-1.7
2023-02-07T06:23:37.750Z,-1.8
2023-02-07T06:25:39.046Z,-1.7
2023-02-07T06:27:39.792Z,-1.8
2023-02-07T06:35:47.099Z,-1.9
2023-02-07T06:37:48.123Z,-1.9
2023-02-07T06:39:49.142Z,-1.9
2023-02-07T06:41:50.167Z,-1.8
2023-02-07T06:43:51.213Z,-1.8
2023-02-07T06:45:55.442Z,-2
2023-02-07T06:47:56.536Z,-1.9
2023-02-07T06:49:57.475Z,-2
2023-02-07T06:51:58.484Z,-2
2023-02-07T06:58:01.574Z,-2
2023-02-07T07:04:07.784Z,-2
2023-02-07T07:05:09.945Z,-2
2023-02-07T07:07:10.953Z,-2
2023-02-07T07:09:11.951Z,-2
2023-02-07T07:11:12.965Z,-2
2023-02-07T07:13:17.219Z,-2
2023-02-07T07:15:18.214Z,-2
2023-02-07T07:17:19.233Z,-2
2023-02-07T07:19:20.217Z,-1.9
2023-02-07T07:21:21.238Z,-1.9
2023-02-07T07:23:22.243Z,-1.8
2023-02-07T07:25:23.247Z,-1.7
2023-02-07T07:27:27.566Z,-1.7
2023-02-07T07:31:29.544Z,-1.7
2023-02-07T07:35:31.528Z,-1.6
2023-02-07T07:37:32.531Z,-1.6
2023-02-07T07:41:37.807Z,-1.6
2023-02-07T07:43:38.837Z,-1.5
2023-02-07T07:45:39.844Z,-1.5
2023-02-07T07:47:40.843Z,-1.4
2023-02-07T07:51:42.868Z,-1.4
2023-02-07T07:53:43.870Z,-1.3
2023-02-07T07:55:48.168Z,-1.3
2023-02-07T07:57:49.177Z,-1.3
2023-02-07T07:59:50.182Z,-1
2023-02-07T08:02:18.655Z,-1
2023-02-07T08:04:19.674Z,-1
2023-02-07T08:06:20.680Z,-1.1
2023-02-07T08:08:24.955Z,-1.1
2023-02-07T08:10:25.977Z,-1.1
2023-02-07T08:12:27.041Z,-1.2
2023-02-07T08:14:28.050Z,-1.2
2023-02-07T08:16:29.222Z,-1.1
2023-02-07T08:18:30.113Z,-1.1
2023-02-07T08:20:31.130Z,-1
2023-02-07T08:26:37.479Z,-0.6
2023-02-07T08:28:38.506Z,-0.6
2023-02-07T08:30:39.876Z,-0.7
2023-02-07T08:34:43.181Z,-0.8
2023-02-07T08:36:47.455Z,-0.8
2023-02-07T08:38:48.495Z,-0.8
2023-02-07T08:40:49.566Z,-0.8
2023-02-07T08:42:50.602Z,-0.8
2023-02-07T08:44:51.624Z,-0.5
2023-02-07T08:46:52.693Z,-0.1
2023-02-07T08:50:58.037Z,0.2
2023-02-07T08:52:59.101Z,0
2023-02-07T08:55:00.185Z,-0.3
2023-02-07T08:58:03.400Z,-0.3
2023-02-07T09:00:04.437Z,-0.3
2023-02-07T09:04:09.892Z,-0.2
2023-02-07T09:06:10.935Z,-0.2
2023-02-07T09:08:11.993Z,-0.1
2023-02-07T09:10:13.057Z,0
2023-02-07T09:12:14.131Z,0
2023-02-07T09:14:15.172Z,0.1
2023-02-07T09:16:16.294Z,0.2
2023-02-07T09:18:20.566Z,0.3
2023-02-07T09:20:21.641Z,0.3
2023-02-07T09:32:31.335Z,0.9
2023-02-07T09:34:32.424Z,0.9
2023-02-07T09:38:34.567Z,0.9
2023-02-07T09:44:37.916Z,3.4
2023-02-07T09:46:42.154Z,5.4
2023-02-07T09:48:43.228Z,5.7
2023-02-07T09:55:48.684Z,6.2
2023-02-07T09:57:49.777Z,6.9
2023-02-07T10:06:01.503Z,8.6
2023-02-07T10:07:58.656Z,9
2023-02-07T10:16:06.502Z,8
2023-02-07T10:18:07.558Z,8
2023-02-07T10:20:08.734Z,8
2023-02-07T10:22:09.902Z,8.2
2023-02-07T10:24:11.087Z,7.4
2023-02-07T10:26:12.190Z,7.9
2023-02-07T10:28:16.676Z,8.4
2023-02-07T10:30:17.811Z,8.5
2023-02-07T10:32:18.983Z,8.7
2023-02-07T10:34:20.197Z,8.5
2023-02-07T10:36:21.337Z,8.2
2023-02-07T10:38:22.559Z,9
2023-02-07T10:40:23.756Z,9.7
2023-02-07T10:42:28.172Z,9.6
2023-02-07T10:44:29.353Z,9.3
2023-02-07T10:46:30.637Z,10.7
2023-02-07T10:49:33.930Z,10.1
2023-02-07T10:53:43.015Z,10.8
2023-02-07T10:55:40.749Z,10.4
2023-02-07T10:57:45.966Z,10.2
2023-02-07T10:59:43.147Z,10.7
2023-02-07T11:07:48.300Z,11
2023-02-07T11:09:52.554Z,10.2
2023-02-07T11:11:53.574Z,10.1
2023-02-07T11:13:54.771Z,9.9
2023-02-07T11:17:57.206Z,9.5
2023-02-07T11:19:58.361Z,10.9
2023-02-07T11:21:59.559Z,12.2
2023-02-07T11:24:04.024Z,11
2023-02-07T11:26:05.226Z,11.2
2023-02-07T11:28:06.468Z,10.7
2023-02-07T11:30:07.605Z,10.1
2023-02-07T11:32:08.820Z,10
2023-02-07T11:34:10.037Z,10.8
2023-02-07T11:38:15.706Z,11
2023-02-07T11:40:16.934Z,9.4
2023-02-07T11:42:18.100Z,7.3
2023-02-07T11:46:47.728Z,5.5
2023-02-07T11:48:48.882Z,5.3
2023-02-07T12:03:00.559Z,5.1
2023-02-07T12:07:06.248Z,5.1
2023-02-07T12:09:07.444Z,5
2023-02-07T12:11:08.585Z,5
2023-02-07T12:13:09.799Z,5.1
2023-02-07T12:15:10.971Z,5
2023-02-07T12:17:12.143Z,5
2023-02-07T12:21:17.803Z,5.4
2023-02-07T12:23:40.736Z,5.2
2023-02-07T12:25:20.208Z,5.1
2023-02-07T12:27:21.345Z,5.1
2023-02-07T12:29:22.521Z,5.1
2023-02-07T12:31:23.845Z,5
2023-02-07T12:33:28.161Z,4.9
2023-02-07T12:35:29.331Z,5
2023-02-07T12:38:32.750Z,5
2023-02-07T12:40:33.931Z,5.1
2023-02-07T12:42:35.087Z,5.2
2023-02-07T12:44:36.281Z,5.2
2023-02-07T12:46:40.693Z,5.3
2023-02-07T12:48:41.895Z,5.3
2023-02-07T12:50:43.055Z,5.3
2023-02-07T12:52:44.234Z,5.3
2023-02-07T12:54:45.425Z,5.3
2023-02-07T12:56:46.634Z,5
2023-02-07T12:58:47.810Z,4.8
2023-02-07T13:00:52.283Z,4.7
2023-02-07T13:02:53.446Z,4.8
2023-02-07T13:04:54.600Z,5
2023-02-07T13:06:55.801Z,5.5
2023-02-07T13:12:59.335Z,5.5
2023-02-07T13:15:03.789Z,5.2
2023-02-07T13:17:04.947Z,5.2
2023-02-07T13:19:06.128Z,5.3
2023-02-07T13:21:07.304Z,5.3
2023-02-07T13:23:08.456Z,5.3
2023-02-07T13:25:09.661Z,5.2
2023-02-07T13:27:10.891Z,5.1
2023-02-07T13:34:19.910Z,4.7
2023-02-07T13:36:21.102Z,4.7
2023-02-07T13:42:27.874Z,4.8
2023-02-07T13:44:29.085Z,4.8
2023-02-07T13:46:30.334Z,5
2023-02-07T13:48:31.417Z,5
2023-02-07T13:50:32.608Z,5.1
2023-02-07T13:52:33.783Z,5.3
2023-02-07T13:54:34.946Z,5.5
2023-02-07T13:56:39.378Z,5.3
2023-02-07T14:00:41.736Z,5.1
2023-02-07T14:04:44.082Z,5.1
2023-02-07T14:06:45.253Z,5
2023-02-07T14:15:02.277Z,5.1
2023-02-07T14:16:54.404Z,5.2
2023-02-07T14:22:57.913Z,5
2023-02-07T14:25:03.912Z,4.9
2023-02-07T14:27:05.046Z,4.9
2023-02-07T14:29:06.246Z,4.9
2023-02-07T14:30:08.456Z,4.8
2023-02-07T14:32:09.657Z,4.8
2023-02-07T14:34:10.826Z,4.8
2023-02-07T14:36:12.001Z,4.8
2023-02-07T14:38:16.434Z,4.7
2023-02-07T14:40:17.862Z,4.7
2023-02-07T14:42:18.789Z,4.8
2023-02-07T14:44:20.006Z,4.9
2023-02-07T14:46:21.347Z,4.9
2023-02-07T14:48:22.388Z,4.9
2023-02-07T14:50:23.553Z,4.9
2023-02-07T14:52:28.003Z,4.8
2023-02-07T14:54:29.182Z,4.7
2023-02-07T14:56:30.388Z,4.6
2023-02-07T15:00:32.751Z,4.6
2023-02-07T15:02:34.035Z,4.6
2023-02-07T15:04:35.084Z,4.6
2023-02-07T15:06:39.558Z,4.8
2023-02-07T15:08:40.720Z,4.8
2023-02-07T15:10:42.535Z,4.7
2023-02-07T15:12:43.079Z,4.6
2023-02-07T15:14:44.234Z,4.7
2023-02-07T15:16:45.598Z,4.7
2023-02-07T15:18:46.620Z,4.7
2023-02-07T15:22:52.223Z,4.5
2023-02-07T15:24:53.407Z,4.6
2023-02-07T15:27:21.803Z,4.6
2023-02-07T15:29:25.265Z,4.6
2023-02-07T15:31:24.286Z,4.6
2023-02-07T15:33:28.565Z,4.6
2023-02-07T15:35:29.735Z,4.5
2023-02-07T15:37:30.902Z,4.5
2023-02-07T15:39:32.081Z,4.5
2023-02-07T15:41:33.274Z,4.5
2023-02-07T15:43:34.437Z,4.4
2023-02-07T15:45:35.631Z,4.4
2023-02-07T15:47:40.004Z,4.3
2023-02-07T15:49:41.200Z,4.3
2023-02-07T15:51:42.365Z,4.3
2023-02-07T15:53:43.541Z,4.3
2023-02-07T15:55:44.703Z,4.3
2023-02-07T15:57:45.877Z,4.3
2023-02-07T15:59:47.023Z,4.2
2023-02-07T16:03:52.639Z,4.2
2023-02-07T16:07:54.979Z,4.2
2023-02-07T16:09:56.127Z,4.1
2023-02-07T16:11:57.303Z,4.1
2023-02-07T16:13:58.439Z,4.1
2023-02-07T16:16:02.934Z,3.9
2023-02-07T16:18:04.071Z,3.9
2023-02-07T16:20:05.196Z,3.9
2023-02-07T16:21:07.412Z,3.9
2023-02-07T16:23:08.591Z,3.8
2023-02-07T16:25:09.727Z,3.8
2023-02-07T16:33:17.600Z,3.6
2023-02-07T16:35:18.739Z,3.6
2023-02-07T16:37:19.897Z,3.6
2023-02-07T16:41:22.159Z,3.5
2023-02-07T16:43:26.568Z,3.5
2023-02-07T16:45:27.788Z,3.4
2023-02-07T16:47:28.898Z,3.4
2023-02-07T16:49:30.025Z,3.4
2023-02-07T16:51:31.174Z,3.3
2023-02-07T16:53:32.326Z,3.3
2023-02-07T16:55:33.462Z,3.2
2023-02-07T16:57:37.885Z,3.1
2023-02-07T16:59:39.022Z,3.1
2023-02-07T17:01:40.133Z,3.1
2023-02-07T17:03:41.281Z,3.1
2023-02-07T17:05:42.401Z,3.1
2023-02-07T17:07:43.528Z,3
2023-02-07T17:09:44.669Z,2.9
2023-02-07T17:11:49.055Z,2.9
2023-02-07T17:13:50.222Z,3
2023-02-07T17:15:51.344Z,3.1
2023-02-07T17:16:53.559Z,3.2
2023-02-07T17:18:54.668Z,3.2
2023-02-07T17:22:56.936Z,3.2
2023-02-07T17:27:02.468Z,3.1
2023-02-07T17:29:03.621Z,3.1
2023-02-07T17:31:04.794Z,3.1
2023-02-07T17:33:05.899Z,3
2023-02-07T17:35:07.029Z,2.9
2023-02-07T17:37:08.134Z,2.9
2023-02-07T17:43:14.843Z,2.9
2023-02-07T17:45:15.979Z,2.9
2023-02-07T17:47:17.114Z,2.8
2023-02-07T17:49:18.262Z,2.8
2023-02-07T17:51:19.396Z,2.7
2023-02-07T17:59:27.192Z,2.7
2023-02-07T18:03:29.458Z,2.8
2023-02-07T18:11:37.238Z,2.7
2023-02-07T18:12:39.445Z,2.6
2023-02-07T18:14:40.595Z,2.6
2023-02-07T18:16:41.724Z,2.5
2023-02-07T18:18:42.870Z,2.5
2023-02-07T18:20:47.235Z,2.4
2023-02-07T18:22:48.381Z,2.4
2023-02-07T18:24:49.518Z,2.4
2023-02-07T18:26:52.589Z,2.3
2023-02-07T18:28:51.808Z,2.3
2023-02-07T18:30:52.986Z,2.3
2023-02-07T18:32:54.035Z,2.2
2023-02-07T18:34:58.449Z,2.2
2023-02-07T18:36:59.559Z,2.1
2023-02-07T18:39:00.696Z,2
2023-02-07T18:41:01.829Z,2
2023-02-07T18:43:02.932Z,1.8
2023-02-07T18:45:04.045Z,1.7
2023-02-07T18:47:05.169Z,1.7
2023-02-07T18:49:09.576Z,1.7
2023-02-07T18:55:12.932Z,1.6
2023-02-07T18:57:14.069Z,1.5
2023-02-07T19:01:16.297Z,1.4
2023-02-07T19:03:20.619Z,1.3
2023-02-07T19:05:21.775Z,1.3
2023-02-07T19:07:22.868Z,1.2
2023-02-07T19:15:57.855Z,1
2023-02-07T19:17:58.952Z,1
2023-02-07T19:20:00.151Z,1
2023-02-07T19:22:01.149Z,0.9
2023-02-07T19:24:02.254Z,0.9
2023-02-07T19:26:03.361Z,0.9
2023-02-07T19:28:04.461Z,0.9
2023-02-07T19:30:08.803Z,0.9
2023-02-07T19:32:09.885Z,0.9
2023-02-07T19:34:10.981Z,0.9
2023-02-07T19:38:13.194Z,0.8
2023-02-07T19:40:14.294Z,0.7
2023-02-07T19:42:15.364Z,0.7
2023-02-07T19:44:19.704Z,0.7
2023-02-07T19:46:20.859Z,0.7
2023-02-07T19:50:22.953Z,0.6
2023-02-07T20:00:31.619Z,0.4
2023-02-07T20:02:32.700Z,0.4
2023-02-07T20:09:38.120Z,0.4
2023-02-07T20:17:47.205Z,0.2
2023-02-07T20:19:48.239Z,0.2
2023-02-07T20:21:49.321Z,0.1
2023-02-07T20:23:50.345Z,0.1
2023-02-07T20:25:54.709Z,0.1
2023-02-07T20:27:55.847Z,0.1
2023-02-07T20:29:56.855Z,0.1
2023-02-07T20:31:57.980Z,0.2
2023-02-07T20:33:59.134Z,0.1
2023-02-07T20:36:00.052Z,0.1
2023-02-07T20:38:01.158Z,0.1
2023-02-07T20:40:05.441Z,0.1
2023-02-07T20:42:06.535Z,0.1
2023-02-07T20:44:07.622Z,0.1
2023-02-07T20:46:08.674Z,0.1
2023-02-07T20:48:09.725Z,0.1
2023-02-07T20:50:10.788Z,0.1
2023-02-07T20:52:11.874Z,0.1
2023-02-07T20:54:16.168Z,0.1
2023-02-07T20:56:17.255Z,0.1
2023-02-07T20:58:18.341Z,0
2023-02-07T20:59:20.518Z,0.1
2023-02-07T21:01:21.625Z,0.1
2023-02-07T21:07:27.994Z,0
2023-02-07T21:09:29.066Z,0
2023-02-07T21:11:30.130Z,0
2023-02-07T21:15:32.263Z,0
2023-02-07T21:17:33.322Z,0
2023-02-07T21:19:34.359Z,-0.1
2023-02-07T21:21:38.705Z,-0.1
2023-02-07T21:23:39.746Z,-0.1
2023-02-07T21:25:40.822Z,-0.1
2023-02-07T21:27:41.870Z,-0.2
2023-02-07T21:29:42.937Z,-0.2
2023-02-07T21:31:44.008Z,-0.3
2023-02-07T21:35:49.368Z,-0.4
2023-02-07T21:37:50.436Z,-0.5
2023-02-07T21:39:51.489Z,-0.5
2023-02-07T21:41:52.525Z,-0.5
2023-02-07T21:43:53.592Z,-0.6
2023-02-07T21:47:55.679Z,-0.7
2023-02-07T21:50:00.007Z,-0.7
2023-02-07T21:52:01.043Z,-0.7
2023-02-07T21:54:02.122Z,-0.7
2023-02-07T21:57:05.306Z,-0.7
2023-02-07T22:01:07.434Z,-0.7
2023-02-07T22:03:13.434Z,-0.8
2023-02-07T22:13:16.973Z,-0.9
2023-02-07T22:15:18.014Z,-0.9
2023-02-07T22:17:22.305Z,-1
2023-02-07T22:21:24.428Z,-1
2023-02-07T22:27:27.577Z,-1.1
2023-02-07T22:29:28.618Z,-1.1
2023-02-07T22:31:33.060Z,-1.1
2023-02-07T22:33:33.962Z,-1.1
2023-02-07T22:35:35.003Z,-1.1
2023-02-07T22:37:36.025Z,-1.1
2023-02-07T22:39:37.077Z,-1.1
2023-02-07T22:41:38.132Z,-1.1
2023-02-07T22:43:39.150Z,-1.1
2023-02-07T22:45:43.589Z,-1.2
2023-02-07T22:47:44.546Z,-1.2
2023-02-07T22:49:45.539Z,-1.2
2023-02-07T22:52:13.996Z,-1.2
2023-02-07T22:56:16.097Z,-1.2
2023-02-07T22:58:20.372Z,-1.2
2023-02-07T23:00:21.486Z,-1.2
2023-02-07T23:02:22.470Z,-1.2
2023-02-07T23:04:23.457Z,-1.2
2023-02-07T23:06:24.530Z,-1.2
2023-02-07T23:08:25.522Z,-1.2
2023-02-07T23:10:26.550Z,-1.2
2023-02-07T23:12:30.839Z,-1.2
2023-02-07T23:14:31.894Z,-1.3
2023-02-07T23:16:32.891Z,-1.3
2023-02-07T23:20:34.965Z,-1.3
2023-02-07T23:22:35.965Z,-1.3
2023-02-07T23:24:37.015Z,-1.3
2023-02-07T23:26:41.296Z,-1.3
2023-02-07T23:28:42.407Z,-1.3
2023-02-07T23:30:43.772Z,-1.3
2023-02-07T23:38:47.499Z,-1.2
2023-02-07T23:40:51.748Z,-1.3
2023-02-07T23:45:55.981Z,-1.3
2023-02-07T23:47:56.974Z,-1.3
2023-02-07T23:49:58.037Z,-1.3
2023-02-07T23:51:59.007Z,-1.3
2023-02-07T23:54:03.500Z,-1.3
2023-02-07T23:56:04.365Z,-1.3
2023-02-07T23:58:05.340Z,-1.3
